createdAt,value
2023-05-10T00:00:47.666Z,56.92
2023-05-10T00:02:09.230Z,57.06
2023-05-10T00:03:31.283Z,56.99
2023-05-10T00:04:53.283Z,57.23
2023-05-10T00:06:14.980Z,57.36
2023-05-10T00:07:45.925Z,57.26
2023-05-10T00:09:13.160Z,57.09
2023-05-10T00:10:37.080Z,57.32
2023-05-10T00:12:01.219Z,57.31
2023-05-10T00:13:25.345Z,57.31
2023-05-10T00:14:54.856Z,57.47
2023-05-10T00:16:16.551Z,57.52
2023-05-10T00:17:38.758Z,57.60
2023-05-10T00:19:11.915Z,57.53
2023-05-10T00:20:33.761Z,57.61
2023-05-10T00:21:58.191Z,57.59
2023-05-10T00:23:32.111Z,57.39
2023-05-10T00:24:53.667Z,57.24
2023-05-10T00:26:17.541Z,57.30
2023-05-10T00:27:40.704Z,57.41
2023-05-10T00:29:02.420Z,57.40
2023-05-10T00:30:26.745Z,57.60
2023-05-10T00:31:53.638Z,57.67
2023-05-10T00:33:19.242Z,57.72
2023-05-10T00:34:41.032Z,57.54
2023-05-10T00:36:02.696Z,57.41
2023-05-10T00:37:24.436Z,57.48
2023-05-10T00:38:46.740Z,57.51
2023-05-10T00:40:20.257Z,57.36
2023-05-10T00:41:44.042Z,57.39
2023-05-10T00:43:05.887Z,57.51
2023-05-10T00:44:27.626Z,57.56
2023-05-10T00:45:51.887Z,57.53
2023-05-10T00:47:13.412Z,57.35
2023-05-10T00:48:37.333Z,57.32
2023-05-10T00:50:11.028Z,57.44
2023-05-10T00:51:40.136Z,57.34
2023-05-10T00:53:01.781Z,57.34
2023-05-10T00:54:23.437Z,57.38
2023-05-10T00:55:46.372Z,57.53
2023-05-10T00:57:11.592Z,57.58
2023-05-10T00:58:33.552Z,57.41
2023-05-10T00:59:57.384Z,57.59
2023-05-10T01:01:26.591Z,57.63
2023-05-10T01:02:48.550Z,57.52
2023-05-10T01:04:13.174Z,57.39
2023-05-10T01:05:35.219Z,57.48
2023-05-10T01:06:57.419Z,57.39
2023-05-10T01:08:18.897Z,57.41
2023-05-10T01:09:40.690Z,57.36
2023-05-10T01:11:03.364Z,57.54
2023-05-10T01:12:25.469Z,57.59
2023-05-10T01:13:57.145Z,57.59
2023-05-10T01:15:19.007Z,57.54
2023-05-10T01:16:40.550Z,57.64
2023-05-10T01:18:02.031Z,57.59
2023-05-10T01:19:25.941Z,57.70
2023-05-10T01:20:47.982Z,57.51
2023-05-10T01:22:12.705Z,57.42
2023-05-10T01:23:34.380Z,57.57
2023-05-10T01:24:58.520Z,57.48
2023-05-10T01:26:22.483Z,57.59
2023-05-10T01:27:44.360Z,57.66
2023-05-10T01:29:06.985Z,57.74
2023-05-10T01:30:29.070Z,57.60
2023-05-10T01:31:50.858Z,57.90
2023-05-10T01:33:12.739Z,57.65
2023-05-10T01:34:34.544Z,57.68
2023-05-10T01:36:07.956Z,57.65
2023-05-10T01:37:30.229Z,57.68
2023-05-10T01:38:59.399Z,57.71
2023-05-10T01:40:21.164Z,57.84
2023-05-10T01:41:42.894Z,57.83
2023-05-10T01:43:04.463Z,57.85
2023-05-10T01:44:26.726Z,57.88
2023-05-10T01:45:48.841Z,57.85
2023-05-10T01:47:12.580Z,57.96
2023-05-10T01:48:44.535Z,58.08
2023-05-10T01:50:05.863Z,58.13
2023-05-10T01:51:30.180Z,58.28
2023-05-10T01:52:51.993Z,58.36
2023-05-10T01:54:21.618Z,58.29
2023-05-10T01:55:47.174Z,58.03
2023-05-10T01:57:10.962Z,58.21
2023-05-10T01:58:35.247Z,58.16
2023-05-10T01:59:57.221Z,58.53
2023-05-10T02:01:19.288Z,58.52
2023-05-10T02:02:41.331Z,58.26
2023-05-10T02:04:02.747Z,58.41
2023-05-10T02:05:24.804Z,58.35
2023-05-10T02:06:49.355Z,58.83
2023-05-10T02:08:11.281Z,58.33
2023-05-10T02:09:33.167Z,58.47
2023-05-10T02:10:54.324Z,58.72
2023-05-10T02:12:18.460Z,58.87
2023-05-10T02:13:40.526Z,59.04
2023-05-10T02:15:02.142Z,59.02
2023-05-10T02:16:24.090Z,59.16
2023-05-10T02:17:45.929Z,59.08
2023-05-10T02:19:09.791Z,59.09
2023-05-10T02:20:39.282Z,59.17
2023-05-10T02:22:01.118Z,59.39
2023-05-10T02:23:24.715Z,59.34
2023-05-10T02:24:46.776Z,59.33
2023-05-10T02:26:16.140Z,59.28
2023-05-10T02:27:37.957Z,59.43
2023-05-10T02:29:01.707Z,59.59
2023-05-10T02:30:23.425Z,59.67
2023-05-10T02:31:45.586Z,59.56
2023-05-10T02:33:07.422Z,59.60
2023-05-10T02:34:31.699Z,59.75
2023-05-10T02:35:53.818Z,59.69
2023-05-10T02:37:26.918Z,59.75
2023-05-10T02:38:49.127Z,59.69
2023-05-10T02:40:11.962Z,59.74
2023-05-10T02:41:36.102Z,59.76
2023-05-10T02:43:00.394Z,59.98
2023-05-10T02:44:22.267Z,59.80
2023-05-10T02:45:44.080Z,59.78
2023-05-10T02:47:13.563Z,59.95
2023-05-10T02:48:42.388Z,59.94
2023-05-10T02:50:06.452Z,60.27
2023-05-10T02:51:27.959Z,60.33
2023-05-10T02:52:49.606Z,60.45
2023-05-10T02:54:11.131Z,60.37
2023-05-10T02:55:33.369Z,60.35
2023-05-10T02:56:55.254Z,60.44
2023-05-10T02:58:19.342Z,60.44
2023-05-10T02:59:43.666Z,60.58
2023-05-10T03:01:08.546Z,60.59
2023-05-10T03:02:33.048Z,60.63
2023-05-10T03:04:04.098Z,60.50
2023-05-10T03:05:26.132Z,60.56
2023-05-10T03:06:55.493Z,61.01
2023-05-10T03:08:16.978Z,60.85
2023-05-10T03:09:43.266Z,60.95
2023-05-10T03:11:05.052Z,60.82
2023-05-10T03:12:29.422Z,61.04
2023-05-10T03:13:51.289Z,60.88
2023-05-10T03:15:13.112Z,60.99
2023-05-10T03:16:35.038Z,60.79
2023-05-10T03:17:56.787Z,61.07
2023-05-10T03:19:23.796Z,61.35
2023-05-10T03:20:45.732Z,61.37
2023-05-10T03:22:09.629Z,61.52
2023-05-10T03:23:31.937Z,61.41
2023-05-10T03:24:56.382Z,61.59
2023-05-10T03:26:26.377Z,61.74
2023-05-10T03:27:54.166Z,61.81
2023-05-10T03:29:18.259Z,61.73
2023-05-10T03:30:42.117Z,61.80
2023-05-10T03:32:05.560Z,61.95
2023-05-10T03:33:27.964Z,61.73
2023-05-10T03:34:52.075Z,61.95
2023-05-10T03:36:16.107Z,62.16
2023-05-10T03:37:38.116Z,62.50
2023-05-10T03:39:00.348Z,63.10
2023-05-10T03:40:26.770Z,60.74
2023-05-10T03:41:48.307Z,56.31
2023-05-10T03:43:09.976Z,53.26
2023-05-10T03:44:34.090Z,52.79
2023-05-10T03:45:55.700Z,53.35
2023-05-10T03:47:17.265Z,53.80
2023-05-10T03:48:38.708Z,54.59
2023-05-10T03:50:07.993Z,55.19
2023-05-10T03:51:32.316Z,56.07
2023-05-10T03:52:56.127Z,56.29
2023-05-10T03:54:20.011Z,56.88
2023-05-10T03:55:41.968Z,57.15
2023-05-10T03:57:11.441Z,57.65
2023-05-10T03:58:33.631Z,57.87
2023-05-10T04:00:04.091Z,57.98
2023-05-10T04:01:36.128Z,58.00
2023-05-10T04:03:05.250Z,58.27
2023-05-10T04:04:29.244Z,58.84
2023-05-10T04:05:53.287Z,58.85
2023-05-10T04:07:25.465Z,59.25
2023-05-10T04:08:54.857Z,59.25
2023-05-10T04:10:17.526Z,59.50
2023-05-10T04:11:39.523Z,59.48
2023-05-10T04:13:01.240Z,59.88
2023-05-10T04:14:25.060Z,60.15
2023-05-10T04:15:46.703Z,60.23
2023-05-10T04:17:15.976Z,60.31
2023-05-10T04:18:37.914Z,60.22
2023-05-10T04:19:59.716Z,60.36
2023-05-10T04:21:21.125Z,60.22
2023-05-10T04:22:42.985Z,60.32
2023-05-10T04:24:05.156Z,60.35
2023-05-10T04:25:26.795Z,60.48
2023-05-10T04:26:47.955Z,60.33
2023-05-10T04:28:11.857Z,60.56
2023-05-10T04:29:36.193Z,60.45
2023-05-10T04:30:57.921Z,60.50
2023-05-10T04:32:21.287Z,60.26
2023-05-10T04:33:43.425Z,60.32
2023-05-10T04:35:05.713Z,60.46
2023-05-10T04:36:27.603Z,60.11
2023-05-10T04:37:49.751Z,60.17
2023-05-10T04:39:11.013Z,59.97
2023-05-10T04:40:33.038Z,60.00
2023-05-10T04:41:54.625Z,60.17
2023-05-10T04:43:16.471Z,60.32
2023-05-10T04:44:38.040Z,60.05
2023-05-10T04:46:09.614Z,60.02
2023-05-10T04:47:31.791Z,60.10
2023-05-10T04:48:55.873Z,60.05
2023-05-10T04:50:19.984Z,60.30
2023-05-10T04:51:42.069Z,60.04
2023-05-10T04:53:06.190Z,60.03
2023-05-10T04:54:27.756Z,60.25
2023-05-10T04:55:56.843Z,59.62
2023-05-10T04:57:18.649Z,59.66
2023-05-10T04:58:40.604Z,59.44
2023-05-10T05:00:04.835Z,59.16
2023-05-10T05:01:28.795Z,58.96
2023-05-10T05:02:51.292Z,58.83
2023-05-10T05:04:13.063Z,58.40
2023-05-10T05:05:35.020Z,58.42
2023-05-10T05:06:56.988Z,58.22
2023-05-10T05:08:26.205Z,58.07
2023-05-10T05:09:47.885Z,57.70
2023-05-10T05:11:19.700Z,57.56
2023-05-10T05:12:41.424Z,57.34
2023-05-10T05:14:17.334Z,57.06
2023-05-10T05:15:39.307Z,57.02
2023-05-10T05:17:10.954Z,56.63
2023-05-10T05:18:35.275Z,56.98
2023-05-10T05:19:59.313Z,56.45
2023-05-10T05:21:21.229Z,55.91
2023-05-10T05:22:45.408Z,55.95
2023-05-10T05:24:18.986Z,55.79
2023-05-10T05:25:40.687Z,55.23
2023-05-10T05:27:04.866Z,55.30
2023-05-10T05:28:38.345Z,55.33
2023-05-10T05:30:07.436Z,54.96
2023-05-10T05:31:31.941Z,55.07
2023-05-10T05:32:53.803Z,54.84
2023-05-10T05:34:17.881Z,53.80
2023-05-10T05:35:51.837Z,53.30
2023-05-10T05:37:21.676Z,52.76
2023-05-10T05:38:46.113Z,52.47
2023-05-10T05:40:12.156Z,52.45
2023-05-10T05:41:36.565Z,52.29
2023-05-10T05:43:05.486Z,51.96
2023-05-10T05:44:34.457Z,51.81
2023-05-10T05:46:07.990Z,51.44
2023-05-10T05:47:31.980Z,51.72
2023-05-10T05:48:53.891Z,51.24
2023-05-10T05:50:17.707Z,51.73
2023-05-10T05:51:50.149Z,51.61
2023-05-10T05:53:19.304Z,51.32
2023-05-10T05:54:45.727Z,50.68
2023-05-10T05:56:07.244Z,50.68
2023-05-10T05:57:28.987Z,50.59
2023-05-10T05:59:02.558Z,50.52
2023-05-10T06:00:24.064Z,50.44
2023-05-10T06:01:48.056Z,50.54
2023-05-10T06:03:12.177Z,50.47
2023-05-10T06:04:34.324Z,50.56
2023-05-10T06:05:58.054Z,50.08
2023-05-10T06:07:26.978Z,49.92
2023-05-10T06:08:48.483Z,49.77
2023-05-10T06:10:12.799Z,49.90
2023-05-10T06:11:36.755Z,50.00
2023-05-10T06:13:12.662Z,50.29
2023-05-10T06:14:44.064Z,50.24
2023-05-10T06:16:18.705Z,50.39
2023-05-10T06:17:43.736Z,50.04
2023-05-10T06:19:05.560Z,50.00
2023-05-10T06:20:39.170Z,49.65
2023-05-10T06:22:03.266Z,49.78
2023-05-10T06:23:26.496Z,49.49
2023-05-10T06:24:50.446Z,49.52
2023-05-10T06:26:23.490Z,49.41
2023-05-10T06:27:49.082Z,49.05
2023-05-10T06:29:12.922Z,49.28
2023-05-10T06:30:37.102Z,48.71
2023-05-10T06:32:12.745Z,48.79
2023-05-10T06:33:37.020Z,48.28
2023-05-10T06:34:58.955Z,48.54
2023-05-10T06:36:25.560Z,48.34
2023-05-10T06:37:49.283Z,48.13
2023-05-10T06:39:12.608Z,47.55
2023-05-10T06:40:36.883Z,47.59
2023-05-10T06:42:00.739Z,47.68
2023-05-10T06:43:31.385Z,47.67
2023-05-10T06:45:12.058Z,47.99
2023-05-10T06:46:34.477Z,48.19
2023-05-10T06:48:03.840Z,48.19
2023-05-10T06:49:25.596Z,48.06
2023-05-10T06:50:54.730Z,48.73
2023-05-10T06:52:21.037Z,47.31
2023-05-10T06:53:42.848Z,47.06
2023-05-10T06:55:04.860Z,47.20
2023-05-10T06:56:29.358Z,47.04
2023-05-10T06:57:53.323Z,46.72
2023-05-10T06:59:22.668Z,47.12
2023-05-10T07:00:44.846Z,47.41
2023-05-10T07:02:07.058Z,47.52
2023-05-10T07:03:29.058Z,47.19
2023-05-10T07:05:03.562Z,47.07
2023-05-10T07:06:33.258Z,46.37
2023-05-10T07:07:57.803Z,46.64
2023-05-10T07:09:23.804Z,46.32
2023-05-10T07:10:45.550Z,46.40
2023-05-10T07:12:09.575Z,46.79
2023-05-10T07:13:35.607Z,46.58
2023-05-10T07:14:57.508Z,46.49
2023-05-10T07:16:21.441Z,46.27
2023-05-10T07:17:50.322Z,46.69
2023-05-10T07:19:14.256Z,47.22
2023-05-10T07:20:36.476Z,46.80
2023-05-10T07:22:00.232Z,46.25
2023-05-10T07:23:26.989Z,46.32
2023-05-10T07:25:03.061Z,46.25
2023-05-10T07:26:36.696Z,45.98
2023-05-10T07:28:01.397Z,46.22
2023-05-10T07:29:34.881Z,46.28
2023-05-10T07:30:56.931Z,45.88
2023-05-10T07:32:30.855Z,45.69
2023-05-10T07:34:04.213Z,45.70
2023-05-10T07:35:33.570Z,45.94
2023-05-10T07:36:55.338Z,45.57
2023-05-10T07:38:18.664Z,46.02
2023-05-10T07:39:52.756Z,45.38
2023-05-10T07:41:14.256Z,45.12
2023-05-10T07:42:36.380Z,44.98
2023-05-10T07:43:58.048Z,45.12
2023-05-10T07:45:19.654Z,45.21
2023-05-10T07:46:41.447Z,45.20
2023-05-10T07:48:03.239Z,45.54
2023-05-10T07:49:25.318Z,45.21
2023-05-10T07:50:49.474Z,44.81
2023-05-10T07:52:11.163Z,44.71
2023-05-10T07:53:33.375Z,44.36
2023-05-10T07:54:55.386Z,44.44
2023-05-10T07:56:19.529Z,44.14
2023-05-10T07:57:41.318Z,44.17
2023-05-10T07:59:23.807Z,44.03
2023-05-10T08:00:50.672Z,44.04
2023-05-10T08:02:12.126Z,43.62
2023-05-10T08:03:39.246Z,43.82
2023-05-10T08:05:03.285Z,44.22
2023-05-10T08:06:27.424Z,44.77
2023-05-10T08:07:49.173Z,44.13
2023-05-10T08:09:11.811Z,43.85
2023-05-10T08:10:33.771Z,44.26
2023-05-10T08:11:57.772Z,43.70
2023-05-10T08:13:19.639Z,43.24
2023-05-10T08:14:41.670Z,43.93
2023-05-10T08:16:03.470Z,43.21
2023-05-10T08:17:25.384Z,42.73
2023-05-10T08:18:50.779Z,42.74
2023-05-10T08:20:13.849Z,43.13
2023-05-10T08:21:36.949Z,43.28
2023-05-10T08:23:00.850Z,42.06
2023-05-10T08:24:23.538Z,41.25
2023-05-10T08:25:47.802Z,41.45
2023-05-10T08:27:09.184Z,41.93
2023-05-10T08:28:33.150Z,42.00
2023-05-10T08:29:55.249Z,42.06
2023-05-10T08:31:19.191Z,41.44
2023-05-10T08:32:41.255Z,41.89
2023-05-10T08:34:02.798Z,40.93
2023-05-10T08:35:36.158Z,40.57
2023-05-10T08:37:01.012Z,39.72
2023-05-10T08:40:22.625Z,39.50
2023-05-10T08:41:46.876Z,38.87
2023-05-10T08:43:09.585Z,38.65
2023-05-10T08:44:31.630Z,38.88
2023-05-10T08:45:53.882Z,38.96
2023-05-10T08:47:15.613Z,39.85
2023-05-10T08:48:37.547Z,39.66
2023-05-10T08:50:01.862Z,39.61
2023-05-10T08:51:26.303Z,39.79
2023-05-10T08:52:49.132Z,39.40
2023-05-10T08:54:15.063Z,39.46
2023-05-10T08:55:44.464Z,39.65
2023-05-10T08:57:08.532Z,39.60
2023-05-10T08:58:38.417Z,38.53
2023-05-10T09:00:02.467Z,38.12
2023-05-10T09:01:32.045Z,38.68
2023-05-10T09:02:53.913Z,38.64
2023-05-10T09:04:15.734Z,37.95
2023-05-10T09:05:49.799Z,36.98
2023-05-10T09:07:11.666Z,37.54
2023-05-10T09:08:35.923Z,37.05
2023-05-10T09:09:57.772Z,36.79
2023-05-10T09:11:19.107Z,36.71
2023-05-10T09:12:40.805Z,37.60
2023-05-10T09:14:12.134Z,38.24
2023-05-10T09:15:36.460Z,38.23
2023-05-10T09:16:58.469Z,38.01
2023-05-10T09:18:22.363Z,38.10
2023-05-10T09:19:43.766Z,38.60
2023-05-10T09:21:05.417Z,37.81
2023-05-10T09:22:39.781Z,37.13
2023-05-10T09:24:01.691Z,36.85
2023-05-10T09:25:25.711Z,36.98
2023-05-10T09:26:48.605Z,36.42
2023-05-10T09:28:17.421Z,36.49
2023-05-10T09:29:41.544Z,36.29
2023-05-10T09:31:03.562Z,36.35
2023-05-10T09:32:25.116Z,37.35
2023-05-10T09:33:52.248Z,36.96
2023-05-10T09:35:13.646Z,36.39
2023-05-10T09:36:40.344Z,36.28
2023-05-10T09:38:02.279Z,36.86
2023-05-10T09:39:26.597Z,35.91
2023-05-10T09:40:55.211Z,35.40
2023-05-10T09:42:16.646Z,35.73
2023-05-10T09:43:45.611Z,36.11
2023-05-10T09:45:07.313Z,36.62
2023-05-10T09:46:28.988Z,37.15
2023-05-10T09:47:50.956Z,36.60
2023-05-10T09:49:12.514Z,36.37
2023-05-10T09:50:37.148Z,36.77
2023-05-10T09:51:58.856Z,35.92
2023-05-10T09:53:20.635Z,35.38
2023-05-10T09:54:44.676Z,35.14
2023-05-10T09:56:08.822Z,35.23
2023-05-10T09:57:31.886Z,35.38
2023-05-10T09:58:54.371Z,36.31
2023-05-10T10:00:16.022Z,35.76
2023-05-10T10:01:37.504Z,35.64
2023-05-10T10:02:59.454Z,35.51
2023-05-10T10:04:21.859Z,36.33
2023-05-10T10:05:44.209Z,38.09
2023-05-10T10:07:05.600Z,37.84
2023-05-10T10:08:27.453Z,38.11
2023-05-10T10:09:51.728Z,37.53
2023-05-10T10:11:13.011Z,36.74
2023-05-10T10:12:35.224Z,36.14
2023-05-10T10:14:04.076Z,35.40
2023-05-10T10:15:26.075Z,34.88
2023-05-10T10:16:59.913Z,35.10
2023-05-10T10:18:30.378Z,35.35
2023-05-10T10:19:52.188Z,35.75
2023-05-10T10:21:13.719Z,35.60
2023-05-10T10:22:37.588Z,35.70
2023-05-10T10:23:59.359Z,35.72
2023-05-10T10:25:21.109Z,35.14
2023-05-10T10:26:45.167Z,34.43
2023-05-10T10:28:07.771Z,34.16
2023-05-10T10:29:41.404Z,33.93
2023-05-10T10:31:03.359Z,35.47
2023-05-10T10:32:25.221Z,35.42
2023-05-10T10:33:48.292Z,35.05
2023-05-10T10:35:12.931Z,34.55
2023-05-10T10:36:46.606Z,35.60
2023-05-10T10:38:08.519Z,35.84
2023-05-10T10:39:37.832Z,36.46
2023-05-10T10:41:02.312Z,35.04
2023-05-10T10:42:26.180Z,34.54
2023-05-10T10:43:50.160Z,34.89
2023-05-10T10:45:22.296Z,35.68
2023-05-10T10:46:44.575Z,36.73
2023-05-10T10:48:08.745Z,35.53
2023-05-10T10:49:49.236Z,36.35
2023-05-10T10:51:13.317Z,35.33
2023-05-10T10:52:35.724Z,34.11
2023-05-10T10:53:57.510Z,33.53
2023-05-10T10:55:25.929Z,33.60
2023-05-10T10:56:59.131Z,34.53
2023-05-10T10:58:27.991Z,34.00
2023-05-10T10:59:52.013Z,33.67
2023-05-10T11:01:16.058Z,32.54
2023-05-10T11:02:53.349Z,31.86
2023-05-10T11:04:17.212Z,31.80
2023-05-10T11:05:46.468Z,31.81
2023-05-10T11:07:10.585Z,31.53
2023-05-10T11:08:36.452Z,32.28
2023-05-10T11:09:59.836Z,33.32
2023-05-10T11:11:36.272Z,33.33
2023-05-10T11:13:09.581Z,33.05
2023-05-10T11:14:38.983Z,32.72
2023-05-10T11:16:12.820Z,32.96
2023-05-10T11:17:35.206Z,33.12
2023-05-10T11:18:58.861Z,31.73
2023-05-10T11:20:35.751Z,32.20
2023-05-10T11:21:59.876Z,30.33
2023-05-10T11:23:22.452Z,30.18
2023-05-10T11:24:58.624Z,30.63
2023-05-10T11:26:27.493Z,31.39
2023-05-10T11:27:49.173Z,31.61
2023-05-10T11:29:11.194Z,31.90
2023-05-10T11:30:40.644Z,31.25
2023-05-10T11:32:22.888Z,30.99
2023-05-10T11:33:44.868Z,31.23
2023-05-10T11:35:08.730Z,30.73
2023-05-10T11:36:32.016Z,30.30
2023-05-10T11:38:00.974Z,30.87
2023-05-10T11:39:27.663Z,30.86
2023-05-10T11:40:56.648Z,31.32
2023-05-10T11:42:37.481Z,31.59
2023-05-10T11:43:58.935Z,30.66
2023-05-10T11:45:32.636Z,29.76
2023-05-10T11:46:54.420Z,30.28
2023-05-10T11:48:17.693Z,30.34
2023-05-10T11:49:40.060Z,29.49
2023-05-10T11:51:02.880Z,29.30
2023-05-10T11:52:32.382Z,29.37
2023-05-10T11:54:05.493Z,29.95
2023-05-10T11:55:27.284Z,29.79
2023-05-10T11:56:48.933Z,29.19
2023-05-10T11:58:10.966Z,28.57
2023-05-10T11:59:35.220Z,28.45
2023-05-10T12:01:07.203Z,28.51
2023-05-10T12:02:31.375Z,28.98
2023-05-10T12:04:05.282Z,28.96
2023-05-10T12:05:50.213Z,28.86
2023-05-10T12:07:14.384Z,28.76
2023-05-10T12:08:39.011Z,27.87
2023-05-10T12:10:01.113Z,27.91
2023-05-10T12:11:25.270Z,27.17
2023-05-10T12:12:48.321Z,26.54
2023-05-10T12:14:12.222Z,26.59
2023-05-10T12:15:34.530Z,27.44
2023-05-10T12:16:59.284Z,26.57
2023-05-10T12:18:20.611Z,27.22
2023-05-10T12:19:45.164Z,27.04
2023-05-10T12:21:06.993Z,27.55
2023-05-10T12:22:31.152Z,27.39
2023-05-10T12:23:58.091Z,26.78
2023-05-10T12:25:19.582Z,26.97
2023-05-10T12:26:43.961Z,27.39
2023-05-10T12:28:05.652Z,27.39
2023-05-10T12:29:27.267Z,27.52
2023-05-10T12:30:56.724Z,27.32
2023-05-10T12:32:20.827Z,27.44
2023-05-10T12:33:51.122Z,26.97
2023-05-10T12:35:15.710Z,26.86
2023-05-10T12:36:37.629Z,26.89
2023-05-10T12:38:01.671Z,26.94
2023-05-10T12:39:33.221Z,26.58
2023-05-10T12:40:55.027Z,27.83
2023-05-10T12:42:24.393Z,26.52
2023-05-10T12:43:49.239Z,26.21
2023-05-10T12:45:10.984Z,26.94
2023-05-10T12:46:33.401Z,26.84
2023-05-10T12:47:59.437Z,25.98
2023-05-10T12:49:21.637Z,25.45
2023-05-10T12:50:45.641Z,25.66
2023-05-10T12:52:09.684Z,26.32
2023-05-10T12:53:33.951Z,26.19
2023-05-10T12:54:57.573Z,26.42
2023-05-10T12:56:19.271Z,26.64
2023-05-10T12:57:43.414Z,25.70
2023-05-10T12:59:14.628Z,25.91
2023-05-10T13:00:38.969Z,26.53
2023-05-10T13:02:03.171Z,26.71
2023-05-10T13:03:25.405Z,26.12
2023-05-10T13:04:51.033Z,26.00
2023-05-10T13:06:14.360Z,26.05
2023-05-10T13:07:36.186Z,25.70
2023-05-10T13:09:00.505Z,25.72
2023-05-10T13:10:24.844Z,25.07
2023-05-10T13:11:48.974Z,24.39
2023-05-10T13:13:11.109Z,24.44
2023-05-10T13:14:44.757Z,24.90
2023-05-10T13:16:08.823Z,24.56
2023-05-10T13:17:34.224Z,24.58
2023-05-10T13:18:56.374Z,24.63
2023-05-10T13:20:25.700Z,24.69
2023-05-10T13:22:01.692Z,24.65
2023-05-10T13:23:23.454Z,24.63
2023-05-10T13:24:50.268Z,24.71
2023-05-10T13:26:11.761Z,25.02
2023-05-10T13:27:33.821Z,24.96
2023-05-10T13:28:57.793Z,25.06
2023-05-10T13:30:26.977Z,25.11
2023-05-10T13:32:07.943Z,23.94
2023-05-10T13:33:30.152Z,24.17
2023-05-10T13:34:52.209Z,24.39
2023-05-10T13:36:14.133Z,24.58
2023-05-10T13:37:38.129Z,24.09
2023-05-10T13:39:02.290Z,24.51
2023-05-10T13:40:31.426Z,24.33
2023-05-10T13:41:53.970Z,24.42
2023-05-10T13:43:17.373Z,23.65
2023-05-10T13:44:51.471Z,23.52
2023-05-10T13:46:25.098Z,23.03
2023-05-10T13:47:47.189Z,22.91
2023-05-10T13:49:16.145Z,22.74
2023-05-10T13:50:39.510Z,23.85
2023-05-10T13:52:07.596Z,23.42
2023-05-10T13:53:29.452Z,22.72
2023-05-10T13:54:55.849Z,22.42
2023-05-10T13:56:36.113Z,22.99
2023-05-10T13:58:00.365Z,23.10
2023-05-10T13:59:24.447Z,22.65
2023-05-10T14:00:46.443Z,22.73
2023-05-10T14:02:08.536Z,22.79
2023-05-10T14:03:30.773Z,23.02
2023-05-10T14:04:52.494Z,23.08
2023-05-10T14:06:22.011Z,23.85
2023-05-10T14:08:01.022Z,23.52
2023-05-10T14:09:22.866Z,23.56
2023-05-10T14:10:49.436Z,23.57
2023-05-10T14:12:15.525Z,23.48
2023-05-10T14:13:40.297Z,23.31
2023-05-10T14:15:07.707Z,23.12
2023-05-10T14:16:29.892Z,23.50
2023-05-10T14:17:54.358Z,23.31
2023-05-10T14:19:28.860Z,23.06
2023-05-10T14:21:02.341Z,22.56
2023-05-10T14:22:26.497Z,22.45
2023-05-10T14:23:50.376Z,22.54
2023-05-10T14:25:23.941Z,22.34
2023-05-10T14:26:46.154Z,22.34
2023-05-10T14:28:20.307Z,22.04
2023-05-10T14:29:54.577Z,22.91
2023-05-10T14:31:18.017Z,22.11
2023-05-10T14:32:59.205Z,22.13
2023-05-10T14:34:28.428Z,21.87
2023-05-10T14:35:50.189Z,21.73
2023-05-10T14:37:14.532Z,21.57
2023-05-10T14:38:39.337Z,21.44
2023-05-10T14:40:01.365Z,21.19
2023-05-10T14:41:22.972Z,21.34
2023-05-10T14:42:47.824Z,21.62
2023-05-10T14:44:16.828Z,20.96
2023-05-10T14:45:41.310Z,21.13
2023-05-10T14:47:03.370Z,20.64
2023-05-10T14:48:25.264Z,20.63
2023-05-10T14:49:47.268Z,21.06
2023-05-10T14:51:11.389Z,21.00
2023-05-10T14:52:54.562Z,21.10
2023-05-10T14:54:42.769Z,21.02
2023-05-10T14:56:04.695Z,20.89
2023-05-10T14:57:26.143Z,21.08
2023-05-10T14:58:47.945Z,21.25
2023-05-10T15:00:12.476Z,21.51
2023-05-10T15:01:36.415Z,21.85
2023-05-10T15:02:58.955Z,22.06
2023-05-10T15:04:23.711Z,21.56
2023-05-10T15:05:48.980Z,21.50
2023-05-10T15:07:18.443Z,21.26
2023-05-10T15:08:52.671Z,21.93
2023-05-10T15:10:28.470Z,21.48
2023-05-10T15:11:50.264Z,21.27
2023-05-10T15:13:12.268Z,21.06
2023-05-10T15:14:34.182Z,21.08
2023-05-10T15:16:03.691Z,21.42
2023-05-10T15:17:25.351Z,21.04
2023-05-10T15:18:50.123Z,20.92
2023-05-10T15:20:11.866Z,20.94
2023-05-10T15:21:50.252Z,20.76
2023-05-10T15:23:26.041Z,20.64
2023-05-10T15:24:50.299Z,20.62
2023-05-10T15:26:12.255Z,20.69
2023-05-10T15:27:34.338Z,20.94
2023-05-10T15:29:00.613Z,21.02
2023-05-10T15:30:34.215Z,20.74
2023-05-10T15:31:58.649Z,20.92
2023-05-10T15:33:22.147Z,20.48
2023-05-10T15:34:44.356Z,20.47
2023-05-10T15:36:17.829Z,20.57
2023-05-10T15:37:39.809Z,20.45
2023-05-10T15:39:01.292Z,20.62
2023-05-10T15:40:30.650Z,21.14
2023-05-10T15:41:52.481Z,20.53
2023-05-10T15:43:16.298Z,21.02
2023-05-10T15:44:39.488Z,20.88
2023-05-10T15:46:01.736Z,20.62
2023-05-10T15:47:25.433Z,20.70
2023-05-10T15:48:47.500Z,21.73
2023-05-10T15:50:09.222Z,21.31
2023-05-10T15:51:35.911Z,21.73
2023-05-10T15:53:00.759Z,21.23
2023-05-10T15:54:23.353Z,21.09
2023-05-10T15:55:45.414Z,20.84
2023-05-10T15:57:07.928Z,20.75
2023-05-10T15:58:29.764Z,20.73
2023-05-10T15:59:51.540Z,20.83
2023-05-10T16:01:15.391Z,20.77
2023-05-10T16:02:49.004Z,20.98
2023-05-10T16:04:11.147Z,20.98
2023-05-10T16:05:40.521Z,21.17
2023-05-10T16:07:02.500Z,21.80
2023-05-10T16:08:35.603Z,21.38
2023-05-10T16:09:57.682Z,21.51
2023-05-10T16:11:19.062Z,21.79
2023-05-10T16:12:40.883Z,22.28
2023-05-10T16:14:02.761Z,22.37
2023-05-10T16:15:24.354Z,22.30
2023-05-10T16:16:48.940Z,22.80
2023-05-10T16:18:18.017Z,23.04
2023-05-10T16:19:47.692Z,23.25
2023-05-10T16:21:11.800Z,23.07
2023-05-10T16:22:33.629Z,23.37
2023-05-10T16:23:59.773Z,23.68
2023-05-10T16:25:21.260Z,24.18
2023-05-10T16:26:45.311Z,24.28
2023-05-10T16:28:07.545Z,24.45
2023-05-10T16:29:31.501Z,24.87
2023-05-10T16:30:53.873Z,25.02
2023-05-10T16:32:20.916Z,25.53
2023-05-10T16:33:46.167Z,25.93
2023-05-10T16:35:08.011Z,26.10
2023-05-10T16:36:33.342Z,26.43
2023-05-10T16:37:55.755Z,26.87
2023-05-10T16:39:17.469Z,26.85
2023-05-10T16:40:39.821Z,26.93
2023-05-10T16:42:12.966Z,27.11
2023-05-10T16:43:36.695Z,27.82
2023-05-10T16:44:58.272Z,28.11
2023-05-10T16:46:27.437Z,28.23
2023-05-10T16:47:49.314Z,28.34
2023-05-10T16:49:12.345Z,28.87
2023-05-10T16:50:34.728Z,28.98
2023-05-10T16:51:58.420Z,29.23
2023-05-10T16:53:20.238Z,29.86
2023-05-10T16:54:42.309Z,29.90
2023-05-10T16:56:04.021Z,30.28
2023-05-10T16:57:25.719Z,30.44
2023-05-10T16:58:49.877Z,30.61
2023-05-10T17:00:11.972Z,30.97
2023-05-10T17:01:33.889Z,30.77
2023-05-10T17:02:55.865Z,31.10
2023-05-10T17:04:17.726Z,31.20
2023-05-10T17:05:42.024Z,31.29
2023-05-10T17:07:13.364Z,31.48
2023-05-10T17:08:37.857Z,31.79
2023-05-10T17:09:59.843Z,31.84
2023-05-10T17:11:21.788Z,32.26
2023-05-10T17:12:43.578Z,32.54
2023-05-10T17:14:07.767Z,32.71
2023-05-10T17:15:31.769Z,33.27
2023-05-10T17:16:55.046Z,33.30
2023-05-10T17:18:28.227Z,33.42
2023-05-10T17:19:58.646Z,33.40
2023-05-10T17:21:20.415Z,33.21
2023-05-10T17:22:44.597Z,33.85
2023-05-10T17:24:08.728Z,33.68
2023-05-10T17:25:33.460Z,33.87
2023-05-10T17:26:57.508Z,33.60
2023-05-10T17:28:21.237Z,33.66
2023-05-10T17:29:45.331Z,33.97
2023-05-10T17:31:07.543Z,34.51
2023-05-10T17:32:41.099Z,34.74
2023-05-10T17:34:05.461Z,34.84
2023-05-10T17:35:42.944Z,35.00
2023-05-10T17:37:04.504Z,35.01
2023-05-10T17:38:26.191Z,35.21
2023-05-10T17:39:47.984Z,35.04
2023-05-10T17:41:12.161Z,35.60
2023-05-10T17:42:34.150Z,35.60
2023-05-10T17:43:58.762Z,35.64
2023-05-10T17:45:20.369Z,36.37
2023-05-10T17:46:44.958Z,36.50
2023-05-10T17:48:07.744Z,36.18
2023-05-10T17:49:29.312Z,36.40
2023-05-10T17:50:50.705Z,36.05
2023-05-10T17:52:12.531Z,35.77
2023-05-10T17:53:41.752Z,35.91
2023-05-10T17:55:11.171Z,36.32
2023-05-10T17:56:33.356Z,36.39
2023-05-10T17:57:58.512Z,36.12
2023-05-10T17:59:20.316Z,36.15
2023-05-10T18:00:41.886Z,36.65
2023-05-10T18:02:03.402Z,36.67
2023-05-10T18:03:27.064Z,36.67
2023-05-10T18:05:01.799Z,37.28
2023-05-10T18:06:23.721Z,36.87
2023-05-10T18:07:47.964Z,37.11
2023-05-10T18:09:10.229Z,37.14
2023-05-10T18:10:32.298Z,37.16
2023-05-10T18:11:54.045Z,37.71
2023-05-10T18:13:15.534Z,37.87
2023-05-10T18:14:41.384Z,38.00
2023-05-10T18:16:05.702Z,38.20